createdAt,value
2023-03-21T00:00:47.484Z,7.43
2023-03-21T00:03:15.476Z,6.88
2023-03-21T00:05:44.428Z,9.70
2023-03-21T00:08:11.688Z,7.85
2023-03-21T00:10:43.464Z,6.40
2023-03-21T00:13:11.587Z,8.57
2023-03-21T00:15:46.271Z,6.68
2023-03-21T00:18:20.131Z,8.70
2023-03-21T00:21:09.764Z,5.32
2023-03-21T00:23:43.849Z,4.22
2023-03-21T00:26:11.107Z,6.03
2023-03-21T00:28:39.474Z,4.55
2023-03-21T00:31:07.262Z,6.43
2023-03-21T00:33:36.697Z,7.25
2023-03-21T00:36:12.585Z,6.57
2023-03-21T00:38:40.043Z,10.45
2023-03-21T00:41:19.258Z,4.15
2023-03-21T00:43:48.480Z,6.47
2023-03-21T00:46:15.709Z,6.55
2023-03-21T00:48:44.288Z,9.77
2023-03-21T00:51:14.240Z,4.10
2023-03-21T00:53:42.066Z,8.30
2023-03-21T00:56:09.690Z,8.05
2023-03-21T00:58:36.826Z,8.95
2023-03-21T01:01:04.649Z,4.03
2023-03-21T01:03:33.599Z,6.63
2023-03-21T01:06:02.123Z,7.72
2023-03-21T01:08:38.188Z,7.13
2023-03-21T01:11:14.099Z,7.72
2023-03-21T01:13:51.194Z,4.70
2023-03-21T01:16:24.259Z,5.45
2023-03-21T01:18:51.469Z,8.77
2023-03-21T01:21:20.027Z,6.68
2023-03-21T01:23:47.670Z,6.40
2023-03-21T01:26:15.580Z,11.10
2023-03-21T01:28:45.044Z,7.68
2023-03-21T01:31:14.783Z,5.88
2023-03-21T01:33:43.038Z,5.90
2023-03-21T01:36:15.124Z,7.40
2023-03-21T01:38:44.462Z,8.57
2023-03-21T01:41:22.047Z,7.75
2023-03-21T01:43:50.260Z,6.22
2023-03-21T01:46:30.236Z,7.10
2023-03-21T01:49:26.798Z,8.40
2023-03-21T01:54:44.352Z,7.43
2023-03-21T01:57:16.756Z,8.65
2023-03-21T01:59:47.761Z,9.25
2023-03-21T02:02:29.126Z,10.00
2023-03-21T02:05:08.294Z,10.25
2023-03-21T02:07:36.943Z,8.43
2023-03-21T02:10:10.037Z,10.18
2023-03-21T02:12:40.106Z,6.68
2023-03-21T02:15:09.515Z,5.47
2023-03-21T02:17:56.480Z,9.48
2023-03-21T02:20:54.880Z,8.30
2023-03-21T02:24:19.724Z,9.38
2023-03-21T02:27:04.036Z,11.07
2023-03-21T02:30:45.626Z,10.18
2023-03-21T02:33:43.381Z,10.27
2023-03-21T02:36:27.888Z,6.63
2023-03-21T02:39:01.767Z,9.27
2023-03-21T02:41:40.576Z,7.95
2023-03-21T02:44:16.751Z,8.88
2023-03-21T02:46:56.352Z,9.73
2023-03-21T02:49:31.094Z,9.55
2023-03-21T02:52:08.555Z,10.45
2023-03-21T02:54:48.311Z,11.77
2023-03-21T02:57:21.286Z,14.50
2023-03-21T02:59:56.866Z,12.93
2023-03-21T03:02:31.867Z,14.23
2023-03-21T03:04:59.056Z,9.30
2023-03-21T03:07:44.386Z,11.18
2023-03-21T03:10:31.391Z,9.10
2023-03-21T03:13:11.319Z,8.65
2023-03-21T03:15:47.058Z,10.35
2023-03-21T03:18:20.774Z,9.27
2023-03-21T03:21:00.006Z,9.55
2023-03-21T03:23:33.638Z,11.48
2023-03-21T03:26:06.598Z,11.57
2023-03-21T03:28:38.973Z,12.38
2023-03-21T03:31:15.141Z,10.40
2023-03-21T03:33:51.461Z,10.98
2023-03-21T03:36:31.693Z,8.82
2023-03-21T03:39:05.413Z,7.97
2023-03-21T03:42:04.440Z,10.05
2023-03-21T03:44:32.769Z,9.55
2023-03-21T03:47:07.906Z,8.45
2023-03-21T03:49:41.985Z,9.50
2023-03-21T03:52:16.010Z,12.93
2023-03-21T03:54:52.221Z,8.38
2023-03-21T03:57:25.120Z,9.20
2023-03-21T03:59:52.840Z,7.88
2023-03-21T04:02:24.595Z,10.88
2023-03-21T04:04:52.407Z,13.10
2023-03-21T04:07:20.375Z,10.57
2023-03-21T04:09:48.975Z,9.50
2023-03-21T04:12:19.357Z,8.77
2023-03-21T04:15:20.427Z,6.78
2023-03-21T04:17:56.193Z,7.70
2023-03-21T04:20:36.223Z,6.68
2023-03-21T04:23:05.160Z,6.60
2023-03-21T04:25:34.687Z,6.20
2023-03-21T04:28:04.274Z,7.50
2023-03-21T04:31:02.242Z,8.52
2023-03-21T04:33:37.893Z,7.50
2023-03-21T04:36:07.271Z,7.20
2023-03-21T04:38:34.624Z,9.45
2023-03-21T04:41:04.233Z,9.02
2023-03-21T04:43:31.618Z,9.77
2023-03-21T04:46:00.153Z,10.27
2023-03-21T04:48:27.879Z,7.30
2023-03-21T04:50:55.081Z,8.50
2023-03-21T04:53:22.289Z,6.82
2023-03-21T04:55:52.482Z,9.73
2023-03-21T04:58:21.322Z,6.60
2023-03-21T05:00:48.573Z,13.00
2023-03-21T05:03:17.076Z,9.88
2023-03-21T05:05:44.266Z,7.90
2023-03-21T05:08:11.653Z,8.77
2023-03-21T05:10:39.277Z,11.13
2023-03-21T05:13:06.601Z,8.20
2023-03-21T05:15:33.837Z,9.55
2023-03-21T05:18:01.374Z,7.88
2023-03-21T05:20:29.937Z,8.75
2023-03-21T05:22:57.113Z,8.43
2023-03-21T05:25:24.291Z,8.27
2023-03-21T05:28:14.597Z,7.13
2023-03-21T05:30:43.040Z,9.45
2023-03-21T05:33:10.309Z,6.47
2023-03-21T05:35:39.578Z,7.10
2023-03-21T05:38:09.555Z,8.40
2023-03-21T05:40:47.832Z,7.63
2023-03-21T05:43:15.027Z,9.25
2023-03-21T05:45:42.681Z,10.93
2023-03-21T05:48:10.229Z,17.67
2023-03-21T05:50:54.800Z,13.93
2023-03-21T05:53:23.413Z,13.68
2023-03-21T05:55:50.772Z,11.93
2023-03-21T05:58:37.181Z,17.50
2023-03-21T06:01:05.364Z,11.93
2023-03-21T06:03:35.459Z,10.90
2023-03-21T06:06:08.288Z,9.75
2023-03-21T06:08:45.329Z,10.18
2023-03-21T06:11:23.087Z,8.65
2023-03-21T06:13:52.333Z,9.02
2023-03-21T06:16:22.826Z,10.32
2023-03-21T06:18:51.375Z,12.02
2023-03-21T06:21:31.797Z,11.70
2023-03-21T06:23:58.965Z,7.93
2023-03-21T06:26:26.098Z,11.50
2023-03-21T06:28:54.733Z,10.23
2023-03-21T06:31:22.353Z,11.57
2023-03-21T06:33:49.668Z,9.63
2023-03-21T06:36:16.979Z,7.70
2023-03-21T06:38:45.631Z,8.82
2023-03-21T06:41:13.545Z,6.55
2023-03-21T06:43:45.793Z,8.30
2023-03-21T06:46:13.034Z,8.88
2023-03-21T06:48:40.309Z,13.02
2023-03-21T06:51:07.712Z,7.22
2023-03-21T06:53:38.316Z,13.57
2023-03-21T06:56:36.263Z,10.73
2023-03-21T06:59:04.576Z,10.77
2023-03-21T07:02:01.100Z,13.75
2023-03-21T07:04:29.296Z,12.02
2023-03-21T07:06:57.890Z,9.57
2023-03-21T07:09:26.653Z,9.93
2023-03-21T07:11:56.392Z,7.63
2023-03-21T07:14:27.165Z,7.45
2023-03-21T07:16:54.446Z,7.68
2023-03-21T07:19:21.657Z,11.02
2023-03-21T07:21:48.885Z,7.70
2023-03-21T07:24:16.099Z,11.27
2023-03-21T07:26:43.333Z,12.15
2023-03-21T07:29:12.177Z,7.47
2023-03-21T07:31:40.590Z,7.57
2023-03-21T07:34:08.104Z,8.30
2023-03-21T07:36:35.352Z,6.65
2023-03-21T07:39:02.646Z,9.93
2023-03-21T07:41:30.598Z,11.68
2023-03-21T07:44:11.849Z,7.15
2023-03-21T07:46:39.025Z,7.40
2023-03-21T07:49:06.264Z,7.93
2023-03-21T07:51:33.413Z,7.57
2023-03-21T07:54:00.614Z,7.82
2023-03-21T07:56:27.847Z,9.25
2023-03-21T07:58:55.051Z,8.75
2023-03-21T08:01:23.659Z,6.95
2023-03-21T08:03:50.983Z,8.98
2023-03-21T08:06:18.155Z,8.32
2023-03-21T08:08:45.352Z,8.90
2023-03-21T08:11:13.307Z,10.05
2023-03-21T08:13:40.922Z,9.45
2023-03-21T08:16:08.982Z,8.10
2023-03-21T08:18:37.497Z,9.13
2023-03-21T08:21:05.132Z,7.63
2023-03-21T08:23:32.298Z,6.50
2023-03-21T08:25:59.551Z,9.82
2023-03-21T08:28:27.138Z,8.02
2023-03-21T08:30:54.440Z,11.20
2023-03-21T08:33:21.830Z,10.82
2023-03-21T08:35:50.375Z,9.60
2023-03-21T08:38:17.566Z,10.63
2023-03-21T08:40:44.841Z,12.23
2023-03-21T08:43:14.652Z,8.75
2023-03-21T08:45:42.089Z,9.35
2023-03-21T08:48:09.340Z,11.77
2023-03-21T08:50:36.539Z,9.90
2023-03-21T08:53:05.218Z,10.27
2023-03-21T08:55:32.438Z,10.18
2023-03-21T08:57:59.736Z,11.88
2023-03-21T09:00:26.939Z,8.95
2023-03-21T09:02:54.309Z,10.10
2023-03-21T09:05:21.836Z,14.90
2023-03-21T09:07:49.447Z,14.23
2023-03-21T09:10:23.078Z,11.00
2023-03-21T09:12:51.836Z,10.40
2023-03-21T09:15:19.685Z,11.63
2023-03-21T09:17:47.383Z,11.63
2023-03-21T09:20:14.809Z,10.32
2023-03-21T09:22:42.875Z,11.32
2023-03-21T09:25:10.120Z,11.10
2023-03-21T09:27:38.840Z,10.50
2023-03-21T09:30:07.307Z,11.70
2023-03-21T09:32:34.515Z,10.65
2023-03-21T09:35:01.716Z,11.93
2023-03-21T09:37:28.919Z,10.68
2023-03-21T09:39:56.147Z,8.50
2023-03-21T09:42:34.344Z,11.23
2023-03-21T09:45:12.021Z,9.25
2023-03-21T09:47:43.793Z,11.45
2023-03-21T09:50:15.388Z,10.82
2023-03-21T09:55:17.283Z,7.88
2023-03-21T10:00:20.301Z,8.48
2023-03-21T10:02:48.912Z,10.10
2023-03-21T10:05:18.816Z,12.98
2023-03-21T10:07:50.917Z,12.75
2023-03-21T10:10:21.718Z,13.55
2023-03-21T10:12:52.561Z,12.13
2023-03-21T10:15:23.001Z,8.77
2023-03-21T10:17:55.723Z,11.18
2023-03-21T10:20:24.428Z,10.43
2023-03-21T10:22:54.127Z,9.50
2023-03-21T10:25:26.201Z,10.73
2023-03-21T10:27:53.808Z,9.63
2023-03-21T10:30:35.439Z,9.65
2023-03-21T10:33:06.184Z,11.23
2023-03-21T10:35:34.309Z,12.60
2023-03-21T10:38:01.603Z,9.50
2023-03-21T10:40:34.166Z,12.43
2023-03-21T10:43:18.226Z,9.27
2023-03-21T10:45:48.107Z,12.70
2023-03-21T10:48:15.834Z,12.52
2023-03-21T10:50:46.149Z,10.70
2023-03-21T10:53:19.050Z,10.27
2023-03-21T10:55:48.661Z,9.93
2023-03-21T10:58:20.059Z,11.68
2023-03-21T11:00:48.778Z,9.52
2023-03-21T11:03:22.476Z,14.82
2023-03-21T11:05:55.237Z,8.23
2023-03-21T11:08:22.542Z,11.25
2023-03-21T11:11:01.747Z,12.35
2023-03-21T11:13:34.495Z,11.52
2023-03-21T11:16:08.189Z,9.88
2023-03-21T11:18:41.632Z,7.93
2023-03-21T11:21:10.928Z,12.52
2023-03-21T11:23:41.781Z,12.65
2023-03-21T11:26:11.766Z,11.63
2023-03-21T11:28:41.398Z,10.85
2023-03-21T11:31:10.132Z,10.40
2023-03-21T11:33:39.059Z,12.68
2023-03-21T11:36:24.228Z,9.68
2023-03-21T11:38:53.515Z,11.13
2023-03-21T11:41:24.507Z,10.40
2023-03-21T11:43:53.210Z,10.25
2023-03-21T11:46:25.834Z,11.57
2023-03-21T11:48:53.361Z,11.32
2023-03-21T11:51:28.306Z,9.93
2023-03-21T11:54:03.115Z,12.70
2023-03-21T11:56:35.394Z,9.73
2023-03-21T11:59:21.151Z,13.43
2023-03-21T12:02:01.304Z,14.27
2023-03-21T12:04:40.339Z,15.57
2023-03-21T12:07:22.197Z,10.25
2023-03-21T12:12:38.771Z,11.32
2023-03-21T12:15:16.150Z,9.68
2023-03-21T12:17:54.619Z,12.30
2023-03-21T12:20:32.650Z,11.68
2023-03-21T12:23:14.828Z,7.63
2023-03-21T12:25:47.499Z,11.55
2023-03-21T12:28:32.676Z,7.68
2023-03-21T12:31:09.285Z,14.23
2023-03-21T12:33:48.724Z,10.98
2023-03-21T12:36:41.700Z,10.50
2023-03-21T12:39:22.970Z,9.18
2023-03-21T12:42:00.466Z,16.00
2023-03-21T12:44:31.668Z,12.73
2023-03-21T12:47:02.799Z,10.02
2023-03-21T12:49:35.391Z,12.20
2023-03-21T12:52:06.484Z,7.35
2023-03-21T12:54:39.258Z,12.55
2023-03-21T12:57:10.469Z,11.95
2023-03-21T12:59:44.018Z,7.07
2023-03-21T13:02:20.124Z,12.00
2023-03-21T13:05:01.210Z,14.68
2023-03-21T13:07:34.172Z,9.02
2023-03-21T13:10:11.652Z,12.90
2023-03-21T13:12:47.982Z,8.75
2023-03-21T13:15:45.239Z,11.43
2023-03-21T13:18:20.756Z,11.40
2023-03-21T13:20:52.549Z,8.25
2023-03-21T13:25:50.131Z,10.90
2023-03-21T13:28:21.155Z,13.02
2023-03-21T13:30:49.543Z,12.88
2023-03-21T13:33:22.116Z,10.65
2023-03-21T13:36:00.118Z,11.65
2023-03-21T13:38:29.272Z,10.13
2023-03-21T13:40:59.211Z,9.27
2023-03-21T13:43:42.607Z,9.23
2023-03-21T13:46:12.023Z,11.63
2023-03-21T13:49:00.184Z,12.40
2023-03-21T13:51:45.772Z,13.43
2023-03-21T13:54:22.956Z,13.60
2023-03-21T13:56:54.146Z,12.32
2023-03-21T13:59:38.274Z,11.40
2023-03-21T14:02:23.122Z,11.35
2023-03-21T14:05:05.398Z,8.55
2023-03-21T14:07:39.820Z,11.93
2023-03-21T14:10:18.798Z,9.80
2023-03-21T14:12:46.485Z,13.05
2023-03-21T14:15:19.244Z,10.75
2023-03-21T14:17:50.873Z,12.68
2023-03-21T14:20:21.512Z,12.55
2023-03-21T14:22:50.372Z,25.48
2023-03-21T14:25:20.185Z,27.35
2023-03-21T14:27:49.722Z,28.45
2023-03-21T14:30:23.183Z,20.55
2023-03-21T14:32:50.503Z,13.93
2023-03-21T14:35:17.710Z,13.95
2023-03-21T14:37:46.992Z,13.13
2023-03-21T14:40:23.206Z,10.43
2023-03-21T14:42:51.558Z,7.85
2023-03-21T14:45:21.392Z,11.55
2023-03-21T14:47:56.035Z,9.93
2023-03-21T14:50:28.078Z,30.50
2023-03-21T14:52:55.567Z,16.35
2023-03-21T14:55:24.538Z,11.88
2023-03-21T14:57:52.071Z,12.75
2023-03-21T15:00:24.808Z,9.55
2023-03-21T15:02:53.673Z,8.75
2023-03-21T15:05:25.286Z,8.93
2023-03-21T15:07:55.042Z,8.82
2023-03-21T15:10:24.260Z,9.60
2023-03-21T15:12:53.712Z,11.13
2023-03-21T15:15:23.387Z,13.77
2023-03-21T15:17:52.365Z,12.23
2023-03-21T15:20:22.442Z,12.57
2023-03-21T15:22:54.063Z,8.20
2023-03-21T15:25:26.595Z,6.68
2023-03-21T15:27:55.464Z,10.45
2023-03-21T15:30:25.050Z,10.13
2023-03-21T15:32:52.518Z,12.00
2023-03-21T15:35:25.234Z,7.20
2023-03-21T15:37:55.155Z,7.63
2023-03-21T15:40:26.374Z,8.52
2023-03-21T15:43:05.260Z,8.73
2023-03-21T15:45:32.519Z,6.72
2023-03-21T15:48:01.845Z,13.10
2023-03-21T15:50:34.739Z,8.10
2023-03-21T15:53:04.906Z,9.60
2023-03-21T15:55:42.342Z,8.93
2023-03-21T15:58:15.219Z,10.40
2023-03-21T16:00:44.256Z,9.40
2023-03-21T16:03:15.692Z,12.13
2023-03-21T16:05:43.135Z,11.25
2023-03-21T16:08:20.198Z,11.25
2023-03-21T16:10:48.875Z,11.60
2023-03-21T16:13:16.062Z,11.40
2023-03-21T16:15:43.767Z,7.85
2023-03-21T16:18:14.614Z,10.20
2023-03-21T16:20:44.190Z,9.20
2023-03-21T16:23:12.199Z,8.40
2023-03-21T16:25:40.416Z,25.80
2023-03-21T16:28:14.101Z,15.80
2023-03-21T16:30:41.342Z,24.13
2023-03-21T16:33:10.531Z,16.08
2023-03-21T16:35:37.874Z,15.15
2023-03-21T16:38:05.092Z,13.80
2023-03-21T16:40:36.046Z,13.20
2023-03-21T16:43:04.621Z,15.45
2023-03-21T16:45:33.342Z,11.98
2023-03-21T16:48:00.654Z,16.52
2023-03-21T16:50:30.744Z,14.52
2023-03-21T16:52:58.291Z,14.63
2023-03-21T16:55:25.892Z,13.30
2023-03-21T16:57:53.688Z,15.35
2023-03-21T17:00:23.762Z,18.17
2023-03-21T17:02:52.795Z,14.27
2023-03-21T17:05:21.075Z,13.98
2023-03-21T17:07:48.558Z,12.30
2023-03-21T17:10:19.288Z,16.67
2023-03-21T17:12:46.830Z,14.02
2023-03-21T17:15:14.754Z,12.68
2023-03-21T17:17:41.962Z,18.92
2023-03-21T17:20:21.423Z,14.35
2023-03-21T17:22:48.898Z,12.32
2023-03-21T17:25:17.058Z,17.08
2023-03-21T17:27:45.033Z,13.63
2023-03-21T17:30:21.489Z,16.77
2023-03-21T17:32:49.074Z,19.55
2023-03-21T17:35:18.654Z,12.93
2023-03-21T17:37:46.860Z,15.38
2023-03-21T17:40:14.086Z,18.30
2023-03-21T17:42:41.239Z,17.63
2023-03-21T17:45:09.370Z,17.38
2023-03-21T17:47:37.133Z,16.65
2023-03-21T17:50:05.241Z,18.27
2023-03-21T17:52:33.741Z,23.05
2023-03-21T17:55:00.951Z,16.60
2023-03-21T17:57:28.115Z,12.98
2023-03-21T17:59:55.304Z,17.60
2023-03-21T18:02:22.543Z,18.60
2023-03-21T18:04:49.799Z,17.85
2023-03-21T18:07:28.694Z,24.20
2023-03-21T18:10:06.871Z,17.30
2023-03-21T18:12:34.099Z,14.15
2023-03-21T18:15:01.517Z,17.33
2023-03-21T18:17:28.730Z,18.23
2023-03-21T18:19:55.899Z,16.35
2023-03-21T18:22:23.054Z,14.38
2023-03-21T18:24:50.298Z,17.80
2023-03-21T18:27:19.042Z,17.88
2023-03-21T18:32:33.621Z,15.07
2023-03-21T18:35:00.995Z,17.83
2023-03-21T18:37:30.409Z,20.95
2023-03-21T18:39:58.457Z,16.88
2023-03-21T18:42:30.696Z,16.65
2023-03-21T18:44:58.306Z,18.92
2023-03-21T18:47:25.501Z,17.85
2023-03-21T18:52:39.972Z,18.23
2023-03-21T18:55:08.986Z,17.73
2023-03-21T18:57:38.834Z,21.63
2023-03-21T19:00:08.786Z,24.33
2023-03-21T19:02:41.935Z,22.38
2023-03-21T19:05:13.122Z,24.08
2023-03-21T19:07:40.314Z,23.33
2023-03-21T19:10:23.558Z,24.42
2023-03-21T19:12:53.115Z,21.10
2023-03-21T19:15:21.732Z,23.52
2023-03-21T19:20:38.563Z,24.95
2023-03-21T19:23:05.913Z,22.35
2023-03-21T19:25:33.200Z,21.17
2023-03-21T19:28:01.772Z,32.63
2023-03-21T19:30:29.218Z,27.73
2023-03-21T19:32:56.440Z,32.60
2023-03-21T19:35:23.830Z,20.05
2023-03-21T19:37:51.023Z,21.05
2023-03-21T19:40:18.243Z,26.80
2023-03-21T19:42:45.901Z,39.60
2023-03-21T19:45:14.477Z,44.55
2023-03-21T19:47:41.717Z,47.75
2023-03-21T19:52:57.277Z,48.53
2023-03-21T19:55:25.337Z,74.30
2023-03-21T19:57:52.540Z,55.47
2023-03-21T20:00:22.634Z,102.75
2023-03-21T20:02:50.160Z,65.10
2023-03-21T20:05:19.077Z,165.75
2023-03-21T20:07:46.472Z,79.07
2023-03-21T20:10:14.091Z,61.65
2023-03-21T20:12:41.319Z,39.63
2023-03-21T20:15:17.813Z,39.67
2023-03-21T20:17:49.058Z,42.08
2023-03-21T20:20:17.544Z,38.20
2023-03-21T20:23:06.098Z,33.90
2023-03-21T20:25:34.281Z,37.50
2023-03-21T20:28:15.264Z,89.03
2023-03-21T20:30:45.897Z,113.50
2023-03-21T20:33:14.577Z,121.28
2023-03-21T20:38:29.005Z,145.23
2023-03-21T20:40:56.496Z,122.97
2023-03-21T20:44:11.702Z,76.53
2023-03-21T20:46:12.579Z,98.20
2023-03-21T20:48:41.395Z,114.93
2023-03-21T20:52:14.833Z,58.10
2023-03-21T20:53:57.917Z,111.68
2023-03-21T20:56:25.171Z,74.28
2023-03-21T20:59:07.985Z,104.57
2023-03-21T21:01:39.451Z,117.97
2023-03-21T21:04:09.451Z,114.05
2023-03-21T21:06:36.877Z,78.15
2023-03-21T21:09:04.199Z,113.88
2023-03-21T21:14:18.557Z,105.20
2023-03-21T21:16:46.013Z,101.78
2023-03-21T21:19:14.638Z,206.60
2023-03-21T21:21:41.857Z,91.47
2023-03-21T21:24:09.111Z,166.20
2023-03-21T21:26:36.299Z,156.32
2023-03-21T21:29:03.510Z,99.18
2023-03-21T21:31:30.843Z,167.23
2023-03-21T21:33:58.255Z,103.00
2023-03-21T21:36:26.880Z,60.55
2023-03-21T21:38:54.594Z,102.00
2023-03-21T21:41:23.136Z,104.72
2023-03-21T21:43:50.459Z,78.55
2023-03-21T21:46:17.664Z,130.57
2023-03-21T21:48:44.829Z,66.00
2023-03-21T21:51:12.108Z,57.42
2023-03-21T21:53:40.599Z,31.10
2023-03-21T21:56:08.983Z,45.00
2023-03-21T21:58:36.214Z,39.78
2023-03-21T22:01:03.510Z,43.63
2023-03-21T22:03:30.737Z,130.13
2023-03-21T22:06:02.974Z,34.22
2023-03-21T22:08:30.148Z,43.72
2023-03-21T22:10:59.719Z,109.18
2023-03-21T22:13:27.162Z,169.85
2023-03-21T22:15:54.570Z,146.73
2023-03-21T22:18:22.050Z,198.57
2023-03-21T22:20:49.282Z,198.52
2023-03-21T22:23:16.444Z,236.60
2023-03-21T22:25:49.472Z,174.63
2023-03-21T22:28:17.966Z,106.75
2023-03-21T22:30:45.139Z,63.92
2023-03-21T22:33:12.334Z,32.67
2023-03-21T22:35:39.637Z,77.85
2023-03-21T22:38:06.849Z,111.28
2023-03-21T22:40:34.052Z,74.30
2023-03-21T22:43:01.240Z,110.88
2023-03-21T22:45:29.795Z,61.47
2023-03-21T22:47:57.035Z,131.30
2023-03-21T22:50:24.265Z,97.15
2023-03-21T22:52:51.462Z,144.73
2023-03-21T22:55:18.737Z,149.75
2023-03-21T22:57:45.901Z,73.32
2023-03-21T23:00:14.050Z,91.63
2023-03-21T23:02:42.664Z,73.78
2023-03-21T23:05:10.301Z,73.57
2023-03-21T23:07:37.984Z,38.40
2023-03-21T23:10:06.320Z,148.63
2023-03-21T23:12:33.598Z,270.95
2023-03-21T23:15:02.278Z,33.58
2023-03-21T23:17:29.728Z,37.72
2023-03-21T23:19:58.286Z,37.47
2023-03-21T23:22:25.444Z,28.90
2023-03-21T23:24:52.609Z,42.92
2023-03-21T23:27:19.859Z,120.03
2023-03-21T23:29:47.144Z,235.15
2023-03-21T23:32:14.481Z,104.28
2023-03-21T23:34:41.659Z,78.00
2023-03-21T23:37:10.183Z,70.25
2023-03-21T23:39:38.161Z,72.35
2023-03-21T23:42:05.858Z,65.35
2023-03-21T23:44:33.090Z,32.92
2023-03-21T23:47:00.368Z,126.38
2023-03-21T23:49:27.611Z,49.17
2023-03-21T23:51:54.827Z,152.10
2023-03-21T23:54:23.374Z,34.92
2023-03-21T23:56:50.589Z,50.22
2023-03-21T23:59:17.817Z,150.02
